KRIL Airport (Rifle Garfield County) Information

FAA: RIL - ICAO: KRIL

KRIL Airport Location

State Colorado
County Garfield
City Rifle
KRIL Airport is 3 miles east of Rifle, CO.
Latitude 39-31-35.8000N
Longitude 107-43-40.8000W
Elevation 5,536ft

KRIL Airport METARs

METAR KRIL 201953Z AUTO 24013G26KT 10SM CLR 35/M01 A2992 RMK AO2 PK WND 25033/1937 SLP046 T03501011
Altimeter 29.92"
Temperature 35.0°C (95.0°F)
Wind 240° at 13KT with gusts to 26KT
Clouds Skies are clear.
Visibility 10.0mi
Time observed: 2021-06-20T19:53:00Z

KRIL Airport Details

Status Operational
Activation July 1940
Ownership Public
Usage Public
Chart DENVER
ATC on-site No
Beacon schedule sunset-sunrise
Beacon color clear green

KRIL Airport Contacts

Owner GARFIELD COUNTY
Owner address 0375 COUNTY RD 352 BLDG 2060, RIFLE, CO 81650
Owner phone 970-625-1091
Manager CARLAN HANKS
Manager address 95 MARMOT DRIVE, RED FEATHER, CO 80545
Manager phone 337-501-8501

KRIL Airport (Rifle Garfield County) Radio Frequencies

KRIL (Airport) Radio Frequencies

UNICOM 122.8
Common traffic advisory frequency (CTAF) 122.8